Time;durP1;ratioP1;P1;durP2;ratioP2;P2;SDS_P1;SDS_P2;PMS_P1;PMS_P2;Temp;Humidity;BMP_temperature;BMP_pressure;BME280_temperature;BME280_humidity;BME280_pressure;Samples;Min_cycle;Max_cycle;Signal;HPM_P1;HPM_P2
2021/12/12 00:00:32;;;;;;;;;62.75;53.50;6.30;80.30;;;;;;5072349;28;8780;-70
2021/12/12 00:03:05;;;;;;;;;67.75;54.50;6.20;80.40;;;;;;5077227;28;8779;-70
2021/12/12 00:05:34;;;;;;;;;61.50;52.75;6.10;81.90;;;;;;5073171;28;8796;-69
2021/12/12 00:08:00;;;;;;;;;61.00;52.25;5.80;82.60;;;;;;5071955;28;8824;-70
2021/12/12 00:10:30;;;;;;;;;63.75;50.00;5.40;84.40;;;;;;5059014;28;8818;-69
2021/12/12 00:13:03;;;;;;;;;55.75;47.25;5.50;85.30;;;;;;5073891;28;8848;-71
2021/12/12 00:15:29;;;;;;;;;51.75;45.75;5.50;84.60;;;;;;5075002;28;9383;-69
2021/12/12 00:17:56;;;;;;;;;59.75;50.50;6.00;81.90;;;;;;5074273;28;8839;-71
2021/12/12 00:20:24;;;;;;;;;50.00;44.75;5.70;83.80;;;;;;5073948;28;8891;-70
2021/12/12 00:22:55;;;;;;;;;61.50;51.50;5.60;83.20;;;;;;5075930;28;8757;-71
2021/12/12 00:25:21;;;;;;;;;55.75;48.25;5.40;84.10;;;;;;5071531;28;8780;-70
2021/12/12 00:27:47;;;;;;;;;49.00;44.25;5.40;84.20;;;;;;5075522;28;8780;-70
2021/12/12 00:30:14;;;;;;;;;42.75;41.00;5.00;85.10;;;;;;5075353;28;8789;-71
2021/12/12 00:32:40;;;;;;;;;49.25;43.50;4.90;86.20;;;;;;5074833;28;8823;-69
2021/12/12 00:35:10;;;;;;;;;52.75;46.75;5.00;86.30;;;;;;5074996;28;8776;-70
2021/12/12 00:37:37;;;;;;;;;52.00;46.25;5.00;85.80;;;;;;5076466;28;8803;-70
2021/12/12 00:40:20;;;;;;;;;45.25;42.00;4.90;85.60;;;;;;5076522;28;8825;-70
2021/12/12 00:42:47;;;;;;;;;36.25;36.25;4.80;86.60;;;;;;5076622;28;8768;-70
2021/12/12 00:45:15;;;;;;;;;48.00;42.50;4.60;86.70;;;;;;5076469;28;9421;-70
2021/12/12 00:47:42;;;;;;;;;40.75;39.50;4.60;86.20;;;;;;5076344;28;8807;-71
2021/12/12 00:50:16;;;;;;;;;44.75;42.00;4.60;86.20;;;;;;5076303;28;8865;-69
2021/12/12 00:52:43;;;;;;;;;45.50;43.00;4.60;85.90;;;;;;5076337;28;8967;-70
2021/12/12 00:55:10;;;;;;;;;51.75;46.00;4.80;86.30;;;;;;5076548;28;8760;-71
2021/12/12 00:57:36;;;;;;;;;52.50;46.50;5.40;83.10;;;;;;5056574;28;8763;-70
2021/12/12 01:00:05;;;;;;;;;39.25;39.25;5.40;82.50;;;;;;5056202;28;8771;-69
2021/12/12 01:02:31;;;;;;;;;45.75;42.50;5.20;83.10;;;;;;5056327;28;8787;-69
2021/12/12 01:05:01;;;;;;;;;48.25;42.50;5.20;82.10;;;;;;5056022;28;8783;-69
2021/12/12 01:07:31;;;;;;;;;48.00;40.50;4.80;83.40;;;;;;5055654;28;8814;-69
2021/12/12 01:10:15;;;;;;;;;48.00;43.75;4.60;84.10;;;;;;5055951;28;8909;-70
2021/12/12 01:12:41;;;;;;;;;38.75;38.75;4.80;83.50;;;;;;5054872;28;8791;-72
2021/12/12 01:15:24;;;;;;;;;43.50;41.00;4.60;84.20;;;;;;5056193;28;8775;-70
2021/12/12 01:17:55;;;;;;;;;46.50;43.75;4.80;83.80;;;;;;5055789;28;8794;-69
2021/12/12 01:20:32;;;;;;;;;45.75;42.00;4.90;82.70;;;;;;5056025;28;9606;-69
2021/12/12 01:23:04;;;;;;;;;39.00;38.75;5.00;81.90;;;;;;5055710;28;8877;-70
2021/12/12 01:25:36;;;;;;;;;45.75;42.25;5.30;81.00;;;;;;5055783;28;8771;-69
2021/12/12 01:28:04;;;;;;;;;38.00;38.00;5.00;81.00;;;;;;5055612;28;8794;-71
2021/12/12 01:30:30;;;;;;;;;46.00;43.00;5.00;81.40;;;;;;5055487;28;8899;-71
2021/12/12 01:32:57;;;;;;;;;52.00;43.25;5.10;80.70;;;;;;5055443;28;8779;-70
2021/12/12 01:35:23;;;;;;;;;32.50;32.50;4.90;81.50;;;;;;5055447;28;8797;-69
2021/12/12 01:40:49;;;;;;;;;44.50;40.25;5.10;79.40;;;;;;5055427;28;8751;-72
2021/12/12 01:43:29;;;;;;;;;41.00;39.75;4.90;81.00;;;;;;5055336;28;8751;-71
2021/12/12 01:46:02;;;;;;;;;41.25;39.50;4.80;81.20;;;;;;5055317;28;8779;-68
2021/12/12 01:48:36;;;;;;;;;44.25;42.00;5.10;79.80;;;;;;5055686;28;8783;-71
2021/12/12 01:51:06;;;;;;;;;42.00;41.25;5.00;79.00;;;;;;5055368;28;8898;-69
2021/12/12 01:53:37;;;;;;;;;38.25;38.25;4.60;80.90;;;;;;5055105;28;8844;-69
2021/12/12 01:56:20;;;;;;;;;48.75;44.25;4.50;81.80;;;;;;5055119;28;8771;-71
2021/12/12 01:58:51;;;;;;;;;32.75;29.75;4.50;81.90;;;;;;5055347;28;8767;-71
2021/12/12 02:01:26;;;;;;;;;46.00;42.00;4.60;81.40;;;;;;5055276;28;8775;-68
2021/12/12 02:03:58;;;;;;;;;41.75;40.75;4.10;83.60;;;;;;5054975;28;8781;-71
2021/12/12 02:06:24;;;;;;;;;42.25;41.25;4.40;82.90;;;;;;5054954;28;9027;-70
2021/12/12 02:08:53;;;;;;;;;39.00;38.00;4.70;81.30;;;;;;5054965;28;8921;-72
2021/12/12 02:11:23;;;;;;;;;41.25;40.00;4.60;82.00;;;;;;5054722;28;8759;-71
2021/12/12 02:13:52;;;;;;;;;37.75;36.25;4.60;81.50;;;;;;5055367;28;8751;-69
2021/12/12 02:16:19;;;;;;;;;33.25;31.00;4.50;81.10;;;;;;5054783;28;8858;-72
2021/12/12 02:18:49;;;;;;;;;38.50;37.75;4.30;82.90;;;;;;5054965;28;8786;-69
2021/12/12 02:21:26;;;;;;;;;33.50;33.50;4.20;83.00;;;;;;5054802;28;8782;-68
2021/12/12 02:35:42;;;;;;;;;37.50;37.25;4.30;82.30;;;;;;5034963;28;8824;-69
2021/12/12 02:38:10;;;;;;;;;41.25;40.00;4.00;83.10;;;;;;5054708;28;9457;-70
2021/12/12 02:40:43;;;;;;;;;37.75;37.75;3.60;84.90;;;;;;5054610;28;8848;-70
2021/12/12 02:43:12;;;;;;;;;35.50;34.25;3.80;87.80;;;;;;5054379;28;8782;-70
2021/12/12 02:45:39;;;;;;;;;40.25;39.50;3.80;90.00;;;;;;5054361;28;8759;-71
2021/12/12 02:48:08;;;;;;;;;39.25;39.00;3.70;88.40;;;;;;5054388;28;8783;-70
2021/12/12 02:50:42;;;;;;;;;44.25;41.50;3.80;87.50;;;;;;5054143;28;8823;-70
2021/12/12 02:53:26;;;;;;;;;37.50;37.50;3.50;87.30;;;;;;5054418;28;8858;-70
2021/12/12 02:55:57;;;;;;;;;36.50;36.50;3.50;86.30;;;;;;5054270;28;8759;-70
2021/12/12 02:58:25;;;;;;;;;33.50;31.00;3.40;87.10;;;;;;5054590;28;9431;-69
2021/12/12 03:01:06;;;;;;;;;33.75;33.75;3.50;87.40;;;;;;5054207;28;8790;-70
2021/12/12 03:03:36;;;;;;;;;26.00;26.00;3.40;86.90;;;;;;5054135;28;8771;-68
2021/12/12 03:06:05;;;;;;;;;32.00;31.75;3.40;87.30;;;;;;5053921;28;8779;-71
2021/12/12 03:08:31;;;;;;;;;34.75;34.75;3.60;86.20;;;;;;5054311;28;8827;-70
2021/12/12 03:10:57;;;;;;;;;35.50;35.50;3.50;86.60;;;;;;5054323;28;9453;-70
2021/12/12 03:13:24;;;;;;;;;37.75;37.00;3.10;89.40;;;;;;5054010;28;8775;-69
2021/12/12 03:15:52;;;;;;;;;37.50;37.50;3.00;90.50;;;;;;5054101;28;8767;-69
2021/12/12 03:18:32;;;;;;;;;38.50;35.00;3.20;88.70;;;;;;5054253;28;8762;-69
2021/12/12 03:21:03;;;;;;;;;31.25;29.00;3.10;88.50;;;;;;5054314;28;8779;-71
2021/12/12 03:23:33;;;;;;;;;36.25;32.25;3.10;88.70;;;;;;5054307;28;8956;-69
2021/12/12 03:26:09;;;;;;;;;28.00;27.50;3.40;87.80;;;;;;5054015;28;8771;-69
2021/12/12 03:28:38;;;;;;;;;36.00;31.50;3.30;87.20;;;;;;5053967;28;8803;-69
2021/12/12 03:31:07;;;;;;;;;33.50;33.25;3.50;87.00;;;;;;5053780;28;8818;-71
2021/12/12 03:33:34;;;;;;;;;35.00;33.50;3.60;87.00;;;;;;5053782;28;8832;-69
2021/12/12 03:36:03;;;;;;;;;38.75;38.50;3.60;86.00;;;;;;5056849;28;8755;-71
2021/12/12 03:38:31;;;;;;;;;31.25;31.25;3.50;86.10;;;;;;5057662;28;8897;-69
2021/12/12 03:40:59;;;;;;;;;31.75;31.75;3.30;86.90;;;;;;5057652;28;8767;-69
2021/12/12 03:43:25;;;;;;;;;31.00;28.75;3.40;87.50;;;;;;5057843;28;8759;-69
2021/12/12 03:45:52;;;;;;;;;29.75;29.75;3.40;86.70;;;;;;5057809;28;8774;-68
2021/12/12 03:48:27;;;;;;;;;35.25;35.25;3.00;88.60;;;;;;5057618;28;8759;-68
2021/12/12 03:50:56;;;;;;;;;42.25;35.00;3.10;89.60;;;;;;5057379;28;8814;-70
2021/12/12 03:53:23;;;;;;;;;44.75;42.00;3.00;89.40;;;;;;5057564;28;8898;-69
2021/12/12 03:55:50;;;;;;;;;37.00;35.75;3.00;90.10;;;;;;5057338;28;8781;-70
2021/12/12 03:58:16;;;;;;;;;32.00;31.75;2.90;90.40;;;;;;5057331;28;8783;-68
2021/12/12 04:00:47;;;;;;;;;44.50;43.00;3.00;90.40;;;;;;5057500;28;8790;-69
2021/12/12 04:03:14;;;;;;;;;32.25;32.25;3.40;89.30;;;;;;5057252;28;8790;-70
2021/12/12 04:05:45;;;;;;;;;41.75;37.50;3.30;88.80;;;;;;5057239;28;8752;-70
2021/12/12 04:08:11;;;;;;;;;37.50;37.50;3.30;88.30;;;;;;5057231;28;8835;-71
2021/12/12 04:10:38;;;;;;;;;25.75;25.75;3.50;86.90;;;;;;5056991;28;8807;-70
2021/12/12 04:13:03;;;;;;;;;39.25;39.00;3.60;86.90;;;;;;5057282;28;9480;-69
2021/12/12 04:15:30;;;;;;;;;44.00;42.75;3.50;86.00;;;;;;5057171;28;8857;-69
2021/12/12 04:17:56;;;;;;;;;34.00;26.50;3.30;86.90;;;;;;5056937;28;8905;-70
2021/12/12 04:20:27;;;;;;;;;31.50;31.50;3.40;87.70;;;;;;5057151;28;8885;-69
2021/12/12 04:22:53;;;;;;;;;36.00;35.25;3.10;88.00;;;;;;5057208;28;9413;-71
2021/12/12 04:25:19;;;;;;;;;47.00;43.00;3.00;89.20;;;;;;5057106;28;9591;-71
2021/12/12 04:27:45;;;;;;;;;33.00;33.00;3.10;89.10;;;;;;5056841;28;8794;-69
2021/12/12 04:30:13;;;;;;;;;38.75;38.75;3.00;90.30;;;;;;5056867;28;8823;-70
2021/12/12 04:32:40;;;;;;;;;39.75;39.75;3.20;90.10;;;;;;5056482;28;8783;-71
2021/12/12 04:35:25;;;;;;;;;29.50;29.50;3.10;90.40;;;;;;5056694;28;9509;-69
2021/12/12 04:37:52;;;;;;;;;37.75;37.75;3.10;90.20;;;;;;5056604;28;8830;-69
2021/12/12 04:40:22;;;;;;;;;41.25;35.75;2.90;90.50;;;;;;5056798;28;8759;-68
2021/12/12 04:42:51;;;;;;;;;30.50;30.50;3.00;90.20;;;;;;5056621;28;8751;-69
2021/12/12 04:46:04;;;;;;;;;46.75;41.25;3.10;90.50;;;;;;5056229;28;8763;-69
2021/12/12 04:51:41;;;;;;;;;33.00;33.00;3.20;89.10;;;;;;5054306;28;8788;-67
2021/12/12 04:54:29;;;;;;;;;33.25;33.25;3.20;88.10;;;;;;5054340;28;8768;-68
2021/12/12 04:57:03;;;;;;;;;44.00;38.75;2.90;89.70;;;;;;5054137;28;8764;-68
2021/12/12 04:59:32;;;;;;;;;47.00;44.00;2.90;90.00;;;;;;5054093;28;8764;-67
2021/12/12 05:02:13;;;;;;;;;42.75;42.25;2.90;90.20;;;;;;5054103;28;8764;-69
2021/12/12 05:04:59;;;;;;;;;51.75;43.75;3.10;90.20;;;;;;5054002;28;9466;-68
2021/12/12 05:07:42;;;;;;;;;49.75;45.50;2.90;99.90;;;;;;5053580;28;8791;-68
2021/12/12 05:10:30;;;;;;;;;50.00;44.25;3.00;98.90;;;;;;5053772;28;8826;-69
2021/12/12 05:13:24;;;;;;;;;38.25;36.25;3.00;95.80;;;;;;5053954;28;8756;-68
2021/12/12 05:15:53;;;;;;;;;49.50;44.75;3.20;91.80;;;;;;5053877;28;8833;-68
2021/12/12 05:18:27;;;;;;;;;43.00;42.25;3.00;90.30;;;;;;5053479;28;8760;-68
2021/12/12 05:21:08;;;;;;;;;45.25;43.75;3.00;90.70;;;;;;5053743;28;8764;-68
2021/12/12 05:23:38;;;;;;;;;44.75;43.50;2.90;90.30;;;;;;5054366;28;8779;-70
2021/12/12 05:26:41;;;;;;;;;36.25;36.25;2.70;91.20;;;;;;5055958;28;8786;-69
2021/12/12 05:29:13;;;;;;;;;44.50;41.25;2.80;91.40;;;;;;5053471;28;8783;-68
2021/12/12 05:31:45;;;;;;;;;62.50;46.00;2.70;91.70;;;;;;5055131;28;8890;-71
2021/12/12 05:34:12;;;;;;;;;62.25;44.75;2.60;92.30;;;;;;5055432;28;8783;-68
2021/12/12 05:36:38;;;;;;;;;56.75;44.00;2.70;92.70;;;;;;5055534;28;8748;-68
2021/12/12 05:39:06;;;;;;;;;56.00;48.00;2.60;99.90;;;;;;5057028;28;8811;-67
2021/12/12 05:41:32;;;;;;;;;49.00;45.00;2.70;97.80;;;;;;5058852;28;8857;-70
2021/12/12 05:43:59;;;;;;;;;37.00;36.75;2.90;96.80;;;;;;5068217;28;9552;-68
2021/12/12 05:46:25;;;;;;;;;42.25;41.00;2.80;95.70;;;;;;5056841;28;8779;-68
2021/12/12 05:48:53;;;;;;;;;48.75;45.25;2.70;92.10;;;;;;5075188;28;8788;-69
2021/12/12 05:51:21;;;;;;;;;41.75;39.00;2.60;92.20;;;;;;5075048;28;8784;-69
2021/12/12 05:53:52;;;;;;;;;59.00;46.00;2.60;92.20;;;;;;5075075;28;8788;-68
2021/12/12 05:56:22;;;;;;;;;46.75;44.00;2.50;92.30;;;;;;5075359;28;8767;-69
2021/12/12 05:58:49;;;;;;;;;58.25;47.00;2.50;92.80;;;;;;5074495;28;8772;-69
2021/12/12 06:01:16;;;;;;;;;55.00;44.75;2.50;93.80;;;;;;5075094;28;9487;-69
2021/12/12 06:03:44;;;;;;;;;56.25;49.50;2.60;93.80;;;;;;5075011;28;8764;-69
2021/12/12 06:06:14;;;;;;;;;59.75;51.00;2.60;93.20;;;;;;5074903;28;8926;-69
2021/12/12 06:08:42;;;;;;;;;51.00;45.75;2.80;93.00;;;;;;5075005;28;8801;-70
2021/12/12 06:11:08;;;;;;;;;52.00;47.25;2.70;99.90;;;;;;5074683;28;8822;-69
2021/12/12 06:13:37;;;;;;;;;49.50;44.25;2.50;99.90;;;;;;5074702;28;8784;-69
2021/12/12 06:16:04;;;;;;;;;55.50;49.25;2.60;99.90;;;;;;5074654;28;8768;-71
2021/12/12 06:18:32;;;;;;;;;54.75;48.00;2.50;99.90;;;;;;5074817;28;8795;-68
2021/12/12 06:20:58;;;;;;;;;41.00;38.25;2.40;99.90;;;;;;5074733;28;8768;-69
2021/12/12 06:23:26;;;;;;;;;46.75;44.75;2.50;99.90;;;;;;5074912;28;9611;-69
2021/12/12 06:25:53;;;;;;;;;48.50;45.75;2.70;99.20;;;;;;5074634;28;8769;-70
2021/12/12 06:28:30;;;;;;;;;57.25;50.75;2.60;97.00;;;;;;5074724;28;8768;-69
2021/12/12 06:30:57;;;;;;;;;44.25;41.25;2.60;96.30;;;;;;5074675;28;8788;-69
2021/12/12 06:33:23;;;;;;;;;52.25;47.25;2.70;97.00;;;;;;5074755;28;8761;-68
2021/12/12 06:35:49;;;;;;;;;56.25;48.75;2.70;96.20;;;;;;5074459;28;8757;-69
2021/12/12 06:38:16;;;;;;;;;59.75;52.00;2.60;95.90;;;;;;5074628;28;8793;-71
2021/12/12 06:40:43;;;;;;;;;57.25;50.25;2.60;95.90;;;;;;5074645;28;8776;-68
2021/12/12 06:43:12;;;;;;;;;63.50;50.00;2.60;96.60;;;;;;5074398;28;8764;-69
2021/12/12 06:45:38;;;;;;;;;56.00;49.50;2.60;95.50;;;;;;5074736;28;8855;-68
2021/12/12 06:48:06;;;;;;;;;48.25;44.75;2.40;97.00;;;;;;5074318;28;8761;-69
2021/12/12 06:50:33;;;;;;;;;50.75;46.25;2.50;97.40;;;;;;5074504;28;8824;-69
2021/12/12 06:53:00;;;;;;;;;45.25;43.75;2.50;96.30;;;;;;5074294;28;8795;-70
2021/12/12 06:55:26;;;;;;;;;55.25;47.50;2.40;97.30;;;;;;5074392;28;8862;-70
2021/12/12 06:57:52;;;;;;;;;52.25;45.00;2.50;97.40;;;;;;5074200;28;8792;-70
2021/12/12 07:00:21;;;;;;;;;48.25;45.50;2.50;97.20;;;;;;5074155;28;8798;-69
2021/12/12 07:02:47;;;;;;;;;56.50;50.00;2.50;96.20;;;;;;5074450;28;8745;-70
2021/12/12 07:05:18;;;;;;;;;58.50;50.00;2.50;97.90;;;;;;5074169;28;8768;-69
2021/12/12 07:07:46;;;;;;;;;58.75;50.00;2.30;97.10;;;;;;5074125;28;8820;-72
2021/12/12 07:10:15;;;;;;;;;69.75;53.25;2.20;97.60;;;;;;5077486;28;8811;-68
2021/12/12 07:12:42;;;;;;;;;69.75;53.50;2.20;99.00;;;;;;5078231;28;9450;-70
2021/12/12 07:15:15;;;;;;;;;62.50;49.25;2.30;98.60;;;;;;5078125;28;8764;-71
2021/12/12 07:17:42;;;;;;;;;63.25;50.00;2.20;97.60;;;;;;5078395;28;8830;-70
2021/12/12 07:20:10;;;;;;;;;69.00;56.25;2.20;98.30;;;;;;5078080;28;8768;-68
2021/12/12 07:22:36;;;;;;;;;66.00;53.00;2.30;98.20;;;;;;5077951;28;8749;-69
2021/12/12 07:25:05;;;;;;;;;65.25;54.00;2.20;97.60;;;;;;5078214;28;8772;-68
2021/12/12 07:27:31;;;;;;;;;71.25;54.25;2.10;98.50;;;;;;5077939;28;8892;-69
2021/12/12 07:29:58;;;;;;;;;67.75;53.50;2.30;98.40;;;;;;5077763;28;8800;-68
2021/12/12 07:32:26;;;;;;;;;61.50;50.75;2.20;97.60;;;;;;5077830;28;8756;-68
2021/12/12 07:34:53;;;;;;;;;63.25;51.25;2.30;98.30;;;;;;5077756;28;8764;-70
2021/12/12 07:37:19;;;;;;;;;67.50;52.75;2.20;97.60;;;;;;5077831;28;8756;-68
2021/12/12 07:39:46;;;;;;;;;66.50;56.00;2.30;97.80;;;;;;5076722;28;9638;-70
2021/12/12 07:42:15;;;;;;;;;64.75;51.00;2.40;97.50;;;;;;5077650;28;8771;-68
2021/12/12 07:44:43;;;;;;;;;56.25;44.25;2.30;97.80;;;;;;5077577;28;8761;-70
2021/12/12 07:47:11;;;;;;;;;67.00;55.00;2.20;97.80;;;;;;5077741;28;9438;-67
2021/12/12 07:49:41;;;;;;;;;68.00;53.00;2.30;97.40;;;;;;5077404;28;8844;-68
2021/12/12 07:52:17;;;;;;;;;63.25;51.00;2.30;98.10;;;;;;5077790;28;8787;-68
2021/12/12 07:54:45;;;;;;;;;64.00;52.50;2.00;97.50;;;;;;5077684;28;8768;-69
2021/12/12 07:57:14;;;;;;;;;72.50;53.50;2.10;98.50;;;;;;5065865;28;8868;-68
2021/12/12 07:59:41;;;;;;;;;63.00;50.50;2.20;98.20;;;;;;5068726;28;8772;-68
2021/12/12 08:02:11;;;;;;;;;61.00;53.25;1.90;97.30;;;;;;5066224;28;8781;-70
2021/12/12 08:04:38;;;;;;;;;62.75;51.00;2.10;98.80;;;;;;5066397;28;8807;-70
2021/12/12 08:07:09;;;;;;;;;41.25;39.00;2.20;97.90;;;;;;5067295;28;8795;-68
2021/12/12 08:09:41;;;;;;;;;68.75;57.25;2.10;99.90;;;;;;5062627;28;9526;-68
2021/12/12 08:12:14;;;;;;;;;72.25;57.00;2.20;99.10;;;;;;5077119;28;8768;-68
2021/12/12 08:14:40;;;;;;;;;58.00;50.75;2.20;99.00;;;;;;5076152;28;8765;-68
2021/12/12 08:17:07;;;;;;;;;63.75;50.50;2.00;98.80;;;;;;5068003;28;8783;-68
2021/12/12 08:19:34;;;;;;;;;65.25;53.50;1.90;99.90;;;;;;5057200;28;8771;-70
2021/12/12 08:22:03;;;;;;;;;57.00;50.50;1.90;99.90;;;;;;5065428;28;8773;-67
2021/12/12 08:24:31;;;;;;;;;53.75;49.00;1.80;99.90;;;;;;5059353;28;8767;-71
2021/12/12 08:26:57;;;;;;;;;63.75;54.00;1.90;99.90;;;;;;5057072;28;8786;-68
2021/12/12 08:29:25;;;;;;;;;48.50;44.50;2.00;99.90;;;;;;5056677;28;8767;-68
2021/12/12 08:31:51;;;;;;;;;52.25;47.50;1.90;99.90;;;;;;5059178;28;8901;-67
2021/12/12 08:34:18;;;;;;;;;67.50;56.25;1.90;99.90;;;;;;5065784;28;8791;-67
2021/12/12 08:36:48;;;;;;;;;50.00;46.25;1.90;99.90;;;;;;5055595;28;8771;-68
2021/12/12 08:39:15;;;;;;;;;58.00;50.50;1.90;99.90;;;;;;5056798;28;8813;-67
2021/12/12 08:41:42;;;;;;;;;67.25;54.00;1.80;99.90;;;;;;5062387;28;8756;-67
2021/12/12 08:44:10;;;;;;;;;57.50;49.50;1.90;99.90;;;;;;5064328;28;8787;-70
2021/12/12 08:46:44;;;;;;;;;59.75;52.25;1.80;99.90;;;;;;5068304;28;8903;-66
2021/12/12 08:49:11;;;;;;;;;67.75;57.50;1.70;99.90;;;;;;5065275;28;8779;-65
2021/12/12 08:51:43;;;;;;;;;64.50;55.00;1.70;99.90;;;;;;5060203;28;8812;-65
2021/12/12 08:54:15;;;;;;;;;43.50;43.25;1.60;99.90;;;;;;5062898;28;8788;-66
2021/12/12 08:56:46;;;;;;;;;66.50;55.00;1.90;99.90;;;;;;5060541;28;8803;-65
2021/12/12 08:59:18;;;;;;;;;61.50;53.00;1.60;99.90;;;;;;5067509;28;8761;-66
2021/12/12 09:01:47;;;;;;;;;65.75;54.50;1.50;99.90;;;;;;5062586;28;8880;-66
2021/12/12 09:04:13;;;;;;;;;64.00;53.25;1.80;99.90;;;;;;5066127;28;8843;-68
2021/12/12 09:06:48;;;;;;;;;66.00;55.50;1.70;99.90;;;;;;5064537;28;8798;-67
2021/12/12 09:09:19;;;;;;;;;62.75;54.75;1.70;99.90;;;;;;5064871;28;8799;-69
2021/12/12 09:12:09;;;;;;;;;68.50;57.50;1.70;99.90;;;;;;5058752;28;8885;-70
2021/12/12 09:15:09;;;;;;;;;64.50;52.75;1.50;99.90;;;;;;5055883;28;8786;-69
2021/12/12 09:17:53;;;;;;;;;65.50;51.25;1.50;99.90;;;;;;5054763;28;8779;-72
2021/12/12 09:20:34;;;;;;;;;66.50;52.75;1.50;99.90;;;;;;5056127;28;8785;-68
2021/12/12 09:23:18;;;;;;;;;67.00;53.00;1.50;99.90;;;;;;5055022;28;8771;-68
2021/12/12 09:25:52;;;;;;;;;48.75;46.00;1.50;99.90;;;;;;5056098;28;8774;-68
2021/12/12 09:28:30;;;;;;;;;63.75;50.25;1.40;99.90;;;;;;5055679;28;8868;-67
2021/12/12 09:31:05;;;;;;;;;45.75;34.00;1.40;99.90;;;;;;5058068;28;9485;-67
2021/12/12 09:34:01;;;;;;;;;57.25;50.50;1.40;99.90;;;;;;5054912;28;9548;-68
2021/12/12 09:36:36;;;;;;;;;62.75;54.75;1.60;99.90;;;;;;5055582;28;8869;-68
2021/12/12 09:39:27;;;;;;;;;58.00;51.25;1.50;99.90;;;;;;5055823;28;8795;-69
2021/12/12 09:42:04;;;;;;;;;63.75;54.50;1.40;99.90;;;;;;5058198;28;8803;-67
2021/12/12 09:45:01;;;;;;;;;56.25;51.50;1.40;99.90;;;;;;5070220;28;8776;-68
2021/12/12 09:47:58;;;;;;;;;58.00;50.50;1.50;99.90;;;;;;5074502;28;9442;-68
2021/12/12 09:53:55;;;;;;;;;43.00;40.25;1.50;99.90;;;;;;5075228;28;8741;-67
2021/12/12 09:56:37;;;;;;;;;61.25;53.75;1.40;99.90;;;;;;5075344;28;8764;-68
2021/12/12 09:59:15;;;;;;;;;51.25;46.75;1.30;99.90;;;;;;5075139;28;8760;-68
2021/12/12 10:02:07;;;;;;;;;61.50;53.50;1.30;99.90;;;;;;5075058;28;8810;-69
2021/12/12 10:05:02;;;;;;;;;60.50;53.75;1.40;99.90;;;;;;5073989;28;8756;-67
2021/12/12 10:07:53;;;;;;;;;58.75;51.00;1.50;99.90;;;;;;5074546;28;8792;-67
2021/12/12 10:10:34;;;;;;;;;38.75;38.75;1.40;99.90;;;;;;5074879;28;8819;-66
2021/12/12 10:13:11;;;;;;;;;56.75;48.50;1.40;99.90;;;;;;5075078;28;9459;-67
2021/12/12 10:15:43;;;;;;;;;64.25;53.25;1.50;99.90;;;;;;5060484;28;8759;-65
2021/12/12 10:18:18;;;;;;;;;46.50;44.00;1.50;99.90;;;;;;5055091;28;8918;-68
2021/12/12 10:21:01;;;;;;;;;20.50;17.00;1.50;99.90;;;;;;5054834;28;9488;-66
2021/12/12 10:23:56;;;;;;;;;48.75;45.00;1.40;99.90;;;;;;5054690;28;8779;-67
2021/12/12 10:26:34;;;;;;;;;51.00;46.75;1.50;99.90;;;;;;5053913;28;8782;-66
2021/12/12 10:29:13;;;;;;;;;58.75;51.25;1.50;99.90;;;;;;5054565;28;8751;-63
2021/12/12 10:32:04;;;;;;;;;41.75;41.75;1.70;99.90;;;;;;5054617;28;8778;-62
2021/12/12 10:34:41;;;;;;;;;46.75;45.00;1.60;99.90;;;;;;5054832;28;8751;-62
2021/12/12 10:37:09;;;;;;;;;47.00;38.50;1.50;99.90;;;;;;5054417;28;8787;-63
2021/12/12 10:39:52;;;;;;;;;49.25;45.75;1.50;99.90;;;;;;5054429;28;8817;-63
2021/12/12 10:42:23;;;;;;;;;44.50;43.50;1.60;99.90;;;;;;5054477;28;8751;-64
2021/12/12 10:45:09;;;;;;;;;49.50;46.00;1.40;99.90;;;;;;5054061;28;8789;-62
2021/12/12 10:47:57;;;;;;;;;60.50;51.00;1.50;99.90;;;;;;5060802;28;8799;-64
2021/12/12 10:50:41;;;;;;;;;43.00;41.75;1.60;99.90;;;;;;5056155;28;8786;-64
2021/12/12 10:53:30;;;;;;;;;44.00;43.50;1.60;99.90;;;;;;5054584;28;8762;-61
2021/12/12 10:56:26;;;;;;;;;47.50;43.75;1.60;99.90;;;;;;5054289;28;8743;-62
2021/12/12 10:58:58;;;;;;;;;45.00;43.50;1.60;99.90;;;;;;5054142;28;9497;-61
2021/12/12 11:01:31;;;;;;;;;39.50;39.50;1.60;99.90;;;;;;5054157;28;8783;-68
2021/12/12 11:04:18;;;;;;;;;52.75;47.00;1.60;99.90;;;;;;5061499;28;8790;-63
2021/12/12 11:06:51;;;;;;;;;45.50;44.25;1.60;99.90;;;;;;5057535;28;8798;-65
2021/12/12 11:09:29;;;;;;;;;48.50;45.50;1.40;99.90;;;;;;5054476;28;8833;-71
2021/12/12 11:12:23;;;;;;;;;48.75;46.00;1.50;99.90;;;;;;5073750;28;9477;-70
2021/12/12 11:15:24;;;;;;;;;48.75;46.25;1.50;99.90;;;;;;5074235;28;8792;-69
2021/12/12 11:18:28;;;;;;;;;36.00;35.00;1.50;99.90;;;;;;5049241;28;8802;-67
2021/12/12 11:21:17;;;;;;;;;52.50;47.25;1.50;99.90;;;;;;5053510;28;8889;-66
2021/12/12 11:23:52;;;;;;;;;47.25;43.00;1.40;99.90;;;;;;5053925;28;8790;-66
2021/12/12 11:26:23;;;;;;;;;47.50;44.75;1.60;99.90;;;;;;5054188;28;8775;-66
2021/12/12 11:28:57;;;;;;;;;45.75;44.75;1.50;99.90;;;;;;5054269;28;8767;-66
2021/12/12 11:31:37;;;;;;;;;46.25;44.75;1.60;99.90;;;;;;5053800;28;8783;-67
2021/12/12 11:34:06;;;;;;;;;47.00;44.75;1.40;99.90;;;;;;5053845;28;8783;-66
2021/12/12 11:37:05;;;;;;;;;53.25;47.25;1.40;99.90;;;;;;5054114;28;8787;-65
2021/12/12 11:39:45;;;;;;;;;47.75;45.25;1.50;99.90;;;;;;5054192;28;8798;-67
2021/12/12 11:42:17;;;;;;;;;46.50;45.00;1.50;99.90;;;;;;5053919;28;9661;-65
2021/12/12 11:45:00;;;;;;;;;44.00;42.50;1.70;99.90;;;;;;5054058;28;8774;-66
2021/12/12 11:47:28;;;;;;;;;47.50;45.25;1.70;99.90;;;;;;5053809;28;8797;-65
2021/12/12 11:50:00;;;;;;;;;41.25;39.50;1.80;99.90;;;;;;5053870;28;8803;-65
2021/12/12 11:53:00;;;;;;;;;37.25;37.00;1.70;99.90;;;;;;5053740;28;8747;-65
2021/12/12 11:55:49;;;;;;;;;23.75;21.00;1.70;99.90;;;;;;5069177;28;8788;-67
2021/12/12 11:58:24;;;;;;;;;39.50;38.25;1.60;99.90;;;;;;5056929;28;8972;-68
2021/12/12 12:00:58;;;;;;;;;44.25;41.75;1.60;99.90;;;;;;5057041;28;8775;-64
2021/12/12 12:03:34;;;;;;;;;38.00;35.50;1.80;99.90;;;;;;5057209;28;9429;-67
2021/12/12 12:06:33;;;;;;;;;38.25;38.25;1.70;99.90;;;;;;5057057;28;8767;-70
2021/12/12 12:09:08;;;;;;;;;40.00;39.75;1.90;99.90;;;;;;5057100;28;8819;-67
2021/12/12 12:12:11;;;;;;;;;39.00;39.00;1.70;99.90;;;;;;5056122;28;8825;-65
2021/12/12 12:15:07;;;;;;;;;36.00;36.00;1.70;99.90;;;;;;5057108;28;8774;-64
2021/12/12 12:17:59;;;;;;;;;33.00;33.00;1.80;99.90;;;;;;5057095;28;8774;-64
2021/12/12 12:20:35;;;;;;;;;35.25;33.75;1.70;99.90;;;;;;5057614;28;9417;-67
2021/12/12 12:23:42;;;;;;;;;41.25;41.25;1.60;99.90;;;;;;5055274;28;8956;-65
2021/12/12 12:29:30;;;;;;;;;43.00;41.25;1.70;99.90;;;;;;5075452;28;8780;-64
2021/12/12 12:32:24;;;;;;;;;36.00;35.50;1.90;99.90;;;;;;5074881;28;8870;-63
2021/12/12 12:35:28;;;;;;;;;37.75;37.75;1.90;99.90;;;;;;5073916;28;8760;-65
2021/12/12 12:38:16;;;;;;;;;36.25;34.50;1.70;99.90;;;;;;5074641;28;8785;-65
2021/12/12 12:41:09;;;;;;;;;38.25;37.50;1.80;99.90;;;;;;5074983;28;8803;-65
2021/12/12 12:44:12;;;;;;;;;35.75;35.75;1.80;99.90;;;;;;5074318;28;8765;-65
2021/12/12 12:47:36;;;;;;;;;39.00;37.50;1.80;99.90;;;;;;5074884;28;9987;-64
2021/12/12 12:50:23;;;;;;;;;39.50;39.50;1.80;99.90;;;;;;5044268;28;8822;-66
2021/12/12 12:53:19;;;;;;;;;35.25;35.25;1.80;99.90;;;;;;5045721;28;8838;-66
2021/12/12 12:56:06;;;;;;;;;40.25;40.25;1.70;99.90;;;;;;5042389;28;8779;-65
2021/12/12 12:58:43;;;;;;;;;32.75;32.75;1.70;99.90;;;;;;5045225;28;8788;-65
2021/12/12 13:01:20;;;;;;;;;40.25;40.25;1.80;99.90;;;;;;5045572;28;8777;-66
2021/12/12 13:04:07;;;;;;;;;41.25;39.25;1.80;99.90;;;;;;5044644;28;8767;-66
2021/12/12 13:07:08;;;;;;;;;40.50;40.50;1.70;99.90;;;;;;5042898;28;8858;-66
2021/12/12 13:09:40;;;;;;;;;30.00;30.00;1.70;99.90;;;;;;5046167;28;8819;-69
2021/12/12 13:12:09;;;;;;;;;38.25;38.25;1.50;99.90;;;;;;5049573;28;8792;-68
2021/12/12 13:15:15;;;;;;;;;29.00;29.00;1.50;99.90;;;;;;5033955;28;8796;-66
2021/12/12 13:17:47;;;;;;;;;35.25;35.25;1.60;99.90;;;;;;4994453;28;8811;-66
2021/12/12 13:20:30;;;;;;;;;42.50;42.25;1.50;99.90;;;;;;4994475;28;8775;-70
2021/12/12 13:23:02;;;;;;;;;36.50;36.00;1.50;99.90;;;;;;4994493;28;8802;-68
2021/12/12 13:25:56;;;;;;;;;38.75;38.00;1.40;99.90;;;;;;4994345;28;8774;-68
2021/12/12 13:28:32;;;;;;;;;40.25;38.75;1.50;99.90;;;;;;5033876;28;8901;-68
2021/12/12 13:31:16;;;;;;;;;30.25;30.25;1.60;99.90;;;;;;5032768;28;8833;-68
2021/12/12 13:34:13;;;;;;;;;37.00;37.00;1.40;99.90;;;;;;5033048;28;8790;-68
2021/12/12 13:37:04;;;;;;;;;37.00;36.50;1.40;99.90;;;;;;5033013;28;8794;-67
2021/12/12 13:39:58;;;;;;;;;34.50;34.25;1.40;99.90;;;;;;5012423;28;8812;-67
2021/12/12 13:43:05;;;;;;;;;32.25;32.25;1.40;99.90;;;;;;5024362;28;8781;-68
2021/12/12 13:45:48;;;;;;;;;36.75;36.75;1.60;99.90;;;;;;5012343;28;8843;-68
2021/12/12 13:48:32;;;;;;;;;41.25;36.00;1.50;99.90;;;;;;5045921;28;8776;-66
2021/12/12 13:51:18;;;;;;;;;46.25;44.25;1.50;99.90;;;;;;5069747;28;8827;-67